sensor_id;sensor_type;location;lat;lon;timestamp;P1;durP1;ratioP1;P2;durP2;ratioP2
12059;SDS011;6091;51.432;6.880;2023-04-24T00:02:05;0.20;;;0.20;;
12059;SDS011;6091;51.432;6.880;2023-04-24T00:04:33;0.30;;;0.30;;
12059;SDS011;6091;51.432;6.880;2023-04-24T00:07:00;0.20;;;0.20;;
12059;SDS011;6091;51.432;6.880;2023-04-24T00:09:29;0.30;;;0.30;;
12059;SDS011;6091;51.432;6.880;2023-04-24T00:11:56;0.20;;;0.20;;
12059;SDS011;6091;51.432;6.880;2023-04-24T00:14:24;0.30;;;0.30;;
12059;SDS011;6091;51.432;6.880;2023-04-24T00:16:51;0.20;;;0.20;;
12059;SDS011;6091;51.432;6.880;2023-04-24T00:19:18;0.25;;;0.25;;
12059;SDS011;6091;51.432;6.880;2023-04-24T00:21:47;0.28;;;0.28;;
12059;SDS011;6091;51.432;6.880;2023-04-24T00:24:17;0.30;;;0.30;;
12059;SDS011;6091;51.432;6.880;2023-04-24T00:26:44;0.30;;;0.30;;
12059;SDS011;6091;51.432;6.880;2023-04-24T00:29:11;0.20;;;0.20;;
12059;SDS011;6091;51.432;6.880;2023-04-24T00:31:39;0.20;;;0.20;;
12059;SDS011;6091;51.432;6.880;2023-04-24T00:34:06;0.20;;;0.20;;
12059;SDS011;6091;51.432;6.880;2023-04-24T00:36:33;0.20;;;0.20;;
12059;SDS011;6091;51.432;6.880;2023-04-24T00:39:04;0.20;;;0.20;;
12059;SDS011;6091;51.432;6.880;2023-04-24T00:41:31;0.20;;;0.20;;
12059;SDS011;6091;51.432;6.880;2023-04-24T00:43:58;0.30;;;0.30;;
12059;SDS011;6091;51.432;6.880;2023-04-24T00:46:25;0.30;;;0.30;;
12059;SDS011;6091;51.432;6.880;2023-04-24T00:48:52;0.20;;;0.20;;
12059;SDS011;6091;51.432;6.880;2023-04-24T00:51:19;0.30;;;0.30;;
12059;SDS011;6091;51.432;6.880;2023-04-24T00:53:47;0.30;;;0.30;;
12059;SDS011;6091;51.432;6.880;2023-04-24T00:56:14;0.20;;;0.20;;
12059;SDS011;6091;51.432;6.880;2023-04-24T00:58:41;0.17;;;0.17;;
12059;SDS011;6091;51.432;6.880;2023-04-24T01:01:09;0.30;;;0.30;;
12059;SDS011;6091;51.432;6.880;2023-04-24T01:03:37;0.20;;;0.20;;
12059;SDS011;6091;51.432;6.880;2023-04-24T01:06:06;0.20;;;0.20;;
12059;SDS011;6091;51.432;6.880;2023-04-24T01:08:35;0.20;;;0.20;;
12059;SDS011;6091;51.432;6.880;2023-04-24T01:11:04;0.20;;;0.20;;
12059;SDS011;6091;51.432;6.880;2023-04-24T01:13:32;0.22;;;0.22;;
12059;SDS011;6091;51.432;6.880;2023-04-24T01:16:01;0.30;;;0.30;;
12059;SDS011;6091;51.432;6.880;2023-04-24T01:18:28;0.30;;;0.30;;
12059;SDS011;6091;51.432;6.880;2023-04-24T01:20:59;0.30;;;0.30;;
12059;SDS011;6091;51.432;6.880;2023-04-24T01:23:33;0.20;;;0.20;;
12059;SDS011;6091;51.432;6.880;2023-04-24T01:26:01;0.30;;;0.30;;
12059;SDS011;6091;51.432;6.880;2023-04-24T01:28:28;0.30;;;0.30;;
12059;SDS011;6091;51.432;6.880;2023-04-24T01:30:58;0.20;;;0.20;;
12059;SDS011;6091;51.432;6.880;2023-04-24T01:33:26;0.30;;;0.30;;
12059;SDS011;6091;51.432;6.880;2023-04-24T01:35:53;0.30;;;0.30;;
12059;SDS011;6091;51.432;6.880;2023-04-24T01:38:21;0.30;;;0.30;;
12059;SDS011;6091;51.432;6.880;2023-04-24T01:40:49;0.20;;;0.20;;
12059;SDS011;6091;51.432;6.880;2023-04-24T01:43:17;0.20;;;0.20;;
12059;SDS011;6091;51.432;6.880;2023-04-24T01:45:45;0.10;;;0.10;;
12059;SDS011;6091;51.432;6.880;2023-04-24T01:48:12;0.30;;;0.30;;
12059;SDS011;6091;51.432;6.880;2023-04-24T01:50:39;0.20;;;0.20;;
12059;SDS011;6091;51.432;6.880;2023-04-24T01:53:07;0.20;;;0.20;;
12059;SDS011;6091;51.432;6.880;2023-04-24T01:55:34;0.20;;;0.20;;
12059;SDS011;6091;51.432;6.880;2023-04-24T01:58:01;0.20;;;0.20;;
12059;SDS011;6091;51.432;6.880;2023-04-24T02:00:29;0.30;;;0.30;;
12059;SDS011;6091;51.432;6.880;2023-04-24T02:02:59;0.20;;;0.20;;
12059;SDS011;6091;51.432;6.880;2023-04-24T02:05:28;0.30;;;0.30;;
12059;SDS011;6091;51.432;6.880;2023-04-24T02:07:55;0.20;;;0.20;;
12059;SDS011;6091;51.432;6.880;2023-04-24T02:10:22;0.20;;;0.20;;
12059;SDS011;6091;51.432;6.880;2023-04-24T02:12:51;0.25;;;0.25;;
12059;SDS011;6091;51.432;6.880;2023-04-24T02:15:18;0.20;;;0.20;;
12059;SDS011;6091;51.432;6.880;2023-04-24T02:17:45;0.20;;;0.20;;
12059;SDS011;6091;51.432;6.880;2023-04-24T02:20:12;0.30;;;0.30;;
12059;SDS011;6091;51.432;6.880;2023-04-24T02:22:39;0.20;;;0.20;;
12059;SDS011;6091;51.432;6.880;2023-04-24T02:25:06;0.30;;;0.30;;
12059;SDS011;6091;51.432;6.880;2023-04-24T02:27:34;0.30;;;0.30;;
12059;SDS011;6091;51.432;6.880;2023-04-24T02:30:01;0.30;;;0.30;;
12059;SDS011;6091;51.432;6.880;2023-04-24T02:32:29;0.20;;;0.20;;
12059;SDS011;6091;51.432;6.880;2023-04-24T02:34:57;0.30;;;0.30;;
12059;SDS011;6091;51.432;6.880;2023-04-24T02:37:24;0.30;;;0.30;;
12059;SDS011;6091;51.432;6.880;2023-04-24T02:39:51;0.22;;;0.22;;
12059;SDS011;6091;51.432;6.880;2023-04-24T02:42:21;0.30;;;0.30;;
12059;SDS011;6091;51.432;6.880;2023-04-24T02:44:47;0.30;;;0.30;;
12059;SDS011;6091;51.432;6.880;2023-04-24T02:47:15;0.32;;;0.32;;
12059;SDS011;6091;51.432;6.880;2023-04-24T02:49:41;0.30;;;0.30;;
12059;SDS011;6091;51.432;6.880;2023-04-24T02:52:09;0.20;;;0.20;;
12059;SDS011;6091;51.432;6.880;2023-04-24T02:54:39;0.30;;;0.30;;
12059;SDS011;6091;51.432;6.880;2023-04-24T02:57:06;0.20;;;0.20;;
12059;SDS011;6091;51.432;6.880;2023-04-24T02:59:37;0.47;;;0.30;;
12059;SDS011;6091;51.432;6.880;2023-04-24T03:02:04;0.28;;;0.28;;
12059;SDS011;6091;51.432;6.880;2023-04-24T03:04:32;0.30;;;0.30;;
12059;SDS011;6091;51.432;6.880;2023-04-24T03:07:01;0.40;;;0.40;;
12059;SDS011;6091;51.432;6.880;2023-04-24T03:09:28;0.30;;;0.30;;
12059;SDS011;6091;51.432;6.880;2023-04-24T03:11:55;0.38;;;0.38;;
12059;SDS011;6091;51.432;6.880;2023-04-24T03:14:24;0.28;;;0.28;;
12059;SDS011;6091;51.432;6.880;2023-04-24T03:16:51;0.30;;;0.30;;
12059;SDS011;6091;51.432;6.880;2023-04-24T03:19:18;0.22;;;0.22;;
12059;SDS011;6091;51.432;6.880;2023-04-24T03:21:45;0.30;;;0.30;;
12059;SDS011;6091;51.432;6.880;2023-04-24T03:24:12;0.38;;;0.38;;
12059;SDS011;6091;51.432;6.880;2023-04-24T03:26:39;0.30;;;0.30;;
12059;SDS011;6091;51.432;6.880;2023-04-24T03:29:07;0.30;;;0.30;;
12059;SDS011;6091;51.432;6.880;2023-04-24T03:31:34;0.20;;;0.20;;
12059;SDS011;6091;51.432;6.880;2023-04-24T03:34:01;0.77;;;0.40;;
12059;SDS011;6091;51.432;6.880;2023-04-24T03:36:28;0.30;;;0.30;;
12059;SDS011;6091;51.432;6.880;2023-04-24T03:38:55;0.35;;;0.30;;
12059;SDS011;6091;51.432;6.880;2023-04-24T03:41:22;0.30;;;0.30;;
12059;SDS011;6091;51.432;6.880;2023-04-24T03:43:49;0.30;;;0.30;;
12059;SDS011;6091;51.432;6.880;2023-04-24T03:46:16;1.45;;;0.40;;
12059;SDS011;6091;51.432;6.880;2023-04-24T03:48:43;0.30;;;0.30;;
12059;SDS011;6091;51.432;6.880;2023-04-24T03:51:10;0.30;;;0.30;;
12059;SDS011;6091;51.432;6.880;2023-04-24T03:53:37;0.40;;;0.30;;
12059;SDS011;6091;51.432;6.880;2023-04-24T03:56:04;0.30;;;0.30;;
12059;SDS011;6091;51.432;6.880;2023-04-24T03:58:31;0.30;;;0.30;;
12059;SDS011;6091;51.432;6.880;2023-04-24T04:00:58;0.30;;;0.30;;
12059;SDS011;6091;51.432;6.880;2023-04-24T04:03:29;0.20;;;0.20;;
12059;SDS011;6091;51.432;6.880;2023-04-24T04:05:56;0.30;;;0.30;;
12059;SDS011;6091;51.432;6.880;2023-04-24T04:08:23;0.30;;;0.30;;
12059;SDS011;6091;51.432;6.880;2023-04-24T04:10:53;0.40;;;0.40;;
12059;SDS011;6091;51.432;6.880;2023-04-24T04:13:21;0.40;;;0.40;;
12059;SDS011;6091;51.432;6.880;2023-04-24T04:15:48;0.40;;;0.40;;
12059;SDS011;6091;51.432;6.880;2023-04-24T04:18:15;0.30;;;0.30;;
12059;SDS011;6091;51.432;6.880;2023-04-24T04:20:42;0.40;;;0.40;;
12059;SDS011;6091;51.432;6.880;2023-04-24T04:23:09;0.40;;;0.40;;
12059;SDS011;6091;51.432;6.880;2023-04-24T04:25:36;0.30;;;0.30;;
12059;SDS011;6091;51.432;6.880;2023-04-24T04:28:03;0.30;;;0.30;;
12059;SDS011;6091;51.432;6.880;2023-04-24T04:30:30;0.38;;;0.38;;
12059;SDS011;6091;51.432;6.880;2023-04-24T04:32:58;0.30;;;0.30;;
12059;SDS011;6091;51.432;6.880;2023-04-24T04:35:26;0.35;;;0.35;;
12059;SDS011;6091;51.432;6.880;2023-04-24T04:37:54;0.30;;;0.30;;
12059;SDS011;6091;51.432;6.880;2023-04-24T04:40:25;0.20;;;0.20;;
12059;SDS011;6091;51.432;6.880;2023-04-24T04:42:57;0.40;;;0.40;;
12059;SDS011;6091;51.432;6.880;2023-04-24T04:45:24;0.40;;;0.40;;
12059;SDS011;6091;51.432;6.880;2023-04-24T04:47:53;0.30;;;0.30;;
12059;SDS011;6091;51.432;6.880;2023-04-24T04:50:21;0.40;;;0.40;;
12059;SDS011;6091;51.432;6.880;2023-04-24T04:52:49;0.40;;;0.40;;
12059;SDS011;6091;51.432;6.880;2023-04-24T04:55:16;0.50;;;0.30;;
12059;SDS011;6091;51.432;6.880;2023-04-24T04:57:44;0.30;;;0.30;;
12059;SDS011;6091;51.432;6.880;2023-04-24T05:00:14;0.40;;;0.40;;
12059;SDS011;6091;51.432;6.880;2023-04-24T05:02:42;0.30;;;0.30;;
12059;SDS011;6091;51.432;6.880;2023-04-24T05:05:10;0.40;;;0.40;;
12059;SDS011;6091;51.432;6.880;2023-04-24T05:07:37;0.40;;;0.40;;
12059;SDS011;6091;51.432;6.880;2023-04-24T05:10:04;0.30;;;0.30;;
12059;SDS011;6091;51.432;6.880;2023-04-24T05:12:33;0.40;;;0.40;;
12059;SDS011;6091;51.432;6.880;2023-04-24T05:15:00;0.30;;;0.30;;
12059;SDS011;6091;51.432;6.880;2023-04-24T05:17:28;0.40;;;0.40;;
12059;SDS011;6091;51.432;6.880;2023-04-24T05:19:55;0.30;;;0.30;;
12059;SDS011;6091;51.432;6.880;2023-04-24T05:22:22;0.30;;;0.30;;
12059;SDS011;6091;51.432;6.880;2023-04-24T05:24:50;0.38;;;0.38;;
12059;SDS011;6091;51.432;6.880;2023-04-24T05:27:17;0.30;;;0.30;;
12059;SDS011;6091;51.432;6.880;2023-04-24T05:29:45;0.30;;;0.30;;
12059;SDS011;6091;51.432;6.880;2023-04-24T05:32:12;0.40;;;0.40;;
12059;SDS011;6091;51.432;6.880;2023-04-24T05:34:39;0.30;;;0.30;;
12059;SDS011;6091;51.432;6.880;2023-04-24T05:37:06;0.30;;;0.30;;
12059;SDS011;6091;51.432;6.880;2023-04-24T05:39:36;0.30;;;0.30;;
12059;SDS011;6091;51.432;6.880;2023-04-24T05:42:07;0.40;;;0.40;;
12059;SDS011;6091;51.432;6.880;2023-04-24T05:44:35;0.30;;;0.30;;
12059;SDS011;6091;51.432;6.880;2023-04-24T05:47:02;0.30;;;0.30;;
12059;SDS011;6091;51.432;6.880;2023-04-24T05:49:29;0.30;;;0.30;;
12059;SDS011;6091;51.432;6.880;2023-04-24T05:51:59;0.30;;;0.30;;
12059;SDS011;6091;51.432;6.880;2023-04-24T05:54:27;0.43;;;0.30;;
12059;SDS011;6091;51.432;6.880;2023-04-24T05:56:54;0.30;;;0.30;;
12059;SDS011;6091;51.432;6.880;2023-04-24T05:59:22;0.38;;;0.38;;
12059;SDS011;6091;51.432;6.880;2023-04-24T06:01:54;0.40;;;0.40;;
12059;SDS011;6091;51.432;6.880;2023-04-24T06:04:24;0.30;;;0.30;;
12059;SDS011;6091;51.432;6.880;2023-04-24T06:06:56;0.63;;;0.43;;
12059;SDS011;6091;51.432;6.880;2023-04-24T06:09:23;0.40;;;0.40;;
12059;SDS011;6091;51.432;6.880;2023-04-24T06:11:53;0.60;;;0.40;;
12059;SDS011;6091;51.432;6.880;2023-04-24T06:14:20;0.93;;;0.50;;
12059;SDS011;6091;51.432;6.880;2023-04-24T06:16:47;0.45;;;0.45;;
12059;SDS011;6091;51.432;6.880;2023-04-24T06:19:15;0.40;;;0.40;;
12059;SDS011;6091;51.432;6.880;2023-04-24T06:21:42;1.55;;;0.40;;
12059;SDS011;6091;51.432;6.880;2023-04-24T06:24:10;1.63;;;0.50;;
12059;SDS011;6091;51.432;6.880;2023-04-24T06:26:38;1.25;;;0.40;;
12059;SDS011;6091;51.432;6.880;2023-04-24T06:29:06;0.40;;;0.40;;
12059;SDS011;6091;51.432;6.880;2023-04-24T06:31:33;1.00;;;0.40;;
12059;SDS011;6091;51.432;6.880;2023-04-24T06:34:03;0.40;;;0.40;;
12059;SDS011;6091;51.432;6.880;2023-04-24T06:36:31;0.40;;;0.40;;
12059;SDS011;6091;51.432;6.880;2023-04-24T06:39:00;0.40;;;0.32;;
12059;SDS011;6091;51.432;6.880;2023-04-24T06:41:28;0.40;;;0.40;;
12059;SDS011;6091;51.432;6.880;2023-04-24T06:43:55;4.75;;;0.60;;
12059;SDS011;6091;51.432;6.880;2023-04-24T06:46:26;0.30;;;0.30;;
12059;SDS011;6091;51.432;6.880;2023-04-24T06:48:54;0.93;;;0.50;;
12059;SDS011;6091;51.432;6.880;2023-04-24T06:51:24;0.95;;;0.63;;
12059;SDS011;6091;51.432;6.880;2023-04-24T06:53:53;0.50;;;0.50;;
12059;SDS011;6091;51.432;6.880;2023-04-24T06:56:22;0.52;;;0.40;;
12059;SDS011;6091;51.432;6.880;2023-04-24T06:58:50;3.15;;;0.50;;
12059;SDS011;6091;51.432;6.880;2023-04-24T07:01:17;0.38;;;0.38;;
12059;SDS011;6091;51.432;6.880;2023-04-24T07:03:47;1.80;;;0.60;;
12059;SDS011;6091;51.432;6.880;2023-04-24T07:06:15;1.58;;;0.45;;
12059;SDS011;6091;51.432;6.880;2023-04-24T07:08:44;0.40;;;0.40;;
12059;SDS011;6091;51.432;6.880;2023-04-24T07:11:12;2.00;;;0.40;;
12059;SDS011;6091;51.432;6.880;2023-04-24T07:13:39;0.50;;;0.50;;
12059;SDS011;6091;51.432;6.880;2023-04-24T07:16:08;0.60;;;0.60;;
12059;SDS011;6091;51.432;6.880;2023-04-24T07:18:36;1.85;;;0.43;;
12059;SDS011;6091;51.432;6.880;2023-04-24T07:21:03;2.25;;;0.50;;
12059;SDS011;6091;51.432;6.880;2023-04-24T07:23:30;0.52;;;0.52;;
12059;SDS011;6091;51.432;6.880;2023-04-24T07:25:58;3.63;;;0.70;;
12059;SDS011;6091;51.432;6.880;2023-04-24T07:28:25;2.60;;;0.63;;
12059;SDS011;6091;51.432;6.880;2023-04-24T07:30:52;1.75;;;0.75;;
12059;SDS011;6091;51.432;6.880;2023-04-24T07:33:20;4.05;;;0.68;;
12059;SDS011;6091;51.432;6.880;2023-04-24T07:35:48;1.40;;;0.60;;
12059;SDS011;6091;51.432;6.880;2023-04-24T07:38:15;3.67;;;0.57;;
12059;SDS011;6091;51.432;6.880;2023-04-24T07:40:43;3.33;;;0.70;;
12059;SDS011;6091;51.432;6.880;2023-04-24T07:43:11;1.92;;;0.63;;
12059;SDS011;6091;51.432;6.880;2023-04-24T07:45:39;1.27;;;0.80;;
12059;SDS011;6091;51.432;6.880;2023-04-24T07:48:07;2.28;;;0.60;;
12059;SDS011;6091;51.432;6.880;2023-04-24T07:50:35;2.40;;;0.47;;
12059;SDS011;6091;51.432;6.880;2023-04-24T07:53:07;2.67;;;0.60;;
12059;SDS011;6091;51.432;6.880;2023-04-24T07:55:34;1.38;;;0.60;;
12059;SDS011;6091;51.432;6.880;2023-04-24T07:58:01;2.80;;;0.70;;
12059;SDS011;6091;51.432;6.880;2023-04-24T08:00:29;2.10;;;0.60;;
12059;SDS011;6091;51.432;6.880;2023-04-24T08:02:57;2.88;;;0.60;;
12059;SDS011;6091;51.432;6.880;2023-04-24T08:05:24;2.78;;;0.68;;
12059;SDS011;6091;51.432;6.880;2023-04-24T08:07:54;2.38;;;0.60;;
12059;SDS011;6091;51.432;6.880;2023-04-24T08:10:22;1.88;;;0.60;;
12059;SDS011;6091;51.432;6.880;2023-04-24T08:12:49;2.70;;;0.63;;
12059;SDS011;6091;51.432;6.880;2023-04-24T08:15:20;2.30;;;0.70;;
12059;SDS011;6091;51.432;6.880;2023-04-24T08:17:47;5.60;;;1.05;;
12059;SDS011;6091;51.432;6.880;2023-04-24T08:20:17;3.10;;;0.70;;
12059;SDS011;6091;51.432;6.880;2023-04-24T08:22:45;3.03;;;0.73;;
12059;SDS011;6091;51.432;6.880;2023-04-24T08:25:13;3.33;;;0.85;;
12059;SDS011;6091;51.432;6.880;2023-04-24T08:27:43;3.78;;;0.98;;
12059;SDS011;6091;51.432;6.880;2023-04-24T08:30:10;4.28;;;0.80;;
12059;SDS011;6091;51.432;6.880;2023-04-24T08:32:39;4.05;;;1.02;;
12059;SDS011;6091;51.432;6.880;2023-04-24T08:35:06;3.58;;;1.05;;
12059;SDS011;6091;51.432;6.880;2023-04-24T08:37:35;3.13;;;0.90;;
12059;SDS011;6091;51.432;6.880;2023-04-24T08:40:05;1.15;;;0.70;;
12059;SDS011;6091;51.432;6.880;2023-04-24T08:42:42;3.70;;;0.82;;
12059;SDS011;6091;51.432;6.880;2023-04-24T08:45:12;3.83;;;0.80;;
12059;SDS011;6091;51.432;6.880;2023-04-24T08:47:40;3.08;;;1.15;;
12059;SDS011;6091;51.432;6.880;2023-04-24T08:50:08;6.05;;;0.90;;
12059;SDS011;6091;51.432;6.880;2023-04-24T08:52:36;6.00;;;0.98;;
12059;SDS011;6091;51.432;6.880;2023-04-24T08:55:04;6.25;;;1.05;;
12059;SDS011;6091;51.432;6.880;2023-04-24T08:57:32;4.40;;;1.10;;
12059;SDS011;6091;51.432;6.880;2023-04-24T09:00:02;4.40;;;0.90;;
12059;SDS011;6091;51.432;6.880;2023-04-24T09:02:31;3.22;;;1.00;;
12059;SDS011;6091;51.432;6.880;2023-04-24T09:05:03;5.90;;;1.00;;
12059;SDS011;6091;51.432;6.880;2023-04-24T09:07:32;3.05;;;1.00;;
12059;SDS011;6091;51.432;6.880;2023-04-24T09:10:02;3.33;;;0.90;;
12059;SDS011;6091;51.432;6.880;2023-04-24T09:12:34;3.47;;;0.80;;
12059;SDS011;6091;51.432;6.880;2023-04-24T09:15:02;2.10;;;0.85;;
12059;SDS011;6091;51.432;6.880;2023-04-24T09:17:30;3.80;;;0.80;;
12059;SDS011;6091;51.432;6.880;2023-04-24T09:19:59;4.50;;;1.08;;
12059;SDS011;6091;51.432;6.880;2023-04-24T09:22:29;5.15;;;1.02;;
12059;SDS011;6091;51.432;6.880;2023-04-24T09:25:03;3.80;;;0.98;;
12059;SDS011;6091;51.432;6.880;2023-04-24T09:27:35;2.90;;;0.90;;
12059;SDS011;6091;51.432;6.880;2023-04-24T09:30:02;6.53;;;1.10;;
12059;SDS011;6091;51.432;6.880;2023-04-24T09:32:31;3.45;;;1.02;;
12059;SDS011;6091;51.432;6.880;2023-04-24T09:35:05;6.20;;;1.10;;
12059;SDS011;6091;51.432;6.880;2023-04-24T09:37:46;1.25;;;0.85;;
12059;SDS011;6091;51.432;6.880;2023-04-24T09:40:19;4.15;;;1.08;;
12059;SDS011;6091;51.432;6.880;2023-04-24T09:42:52;7.43;;;1.40;;
12059;SDS011;6091;51.432;6.880;2023-04-24T09:45:28;3.35;;;1.60;;
12059;SDS011;6091;51.432;6.880;2023-04-24T09:48:01;4.22;;;1.33;;
12059;SDS011;6091;51.432;6.880;2023-04-24T09:50:32;3.97;;;1.40;;
12059;SDS011;6091;51.432;6.880;2023-04-24T09:53:04;2.25;;;1.42;;
12059;SDS011;6091;51.432;6.880;2023-04-24T09:55:42;2.25;;;1.20;;
12059;SDS011;6091;51.432;6.880;2023-04-24T09:58:16;4.80;;;1.52;;
12059;SDS011;6091;51.432;6.880;2023-04-24T10:00:43;3.58;;;1.20;;
12059;SDS011;6091;51.432;6.880;2023-04-24T10:03:12;3.10;;;1.27;;
12059;SDS011;6091;51.432;6.880;2023-04-24T10:05:45;5.47;;;1.80;;
12059;SDS011;6091;51.432;6.880;2023-04-24T10:08:13;4.97;;;1.60;;
12059;SDS011;6091;51.432;6.880;2023-04-24T10:13:10;3.55;;;1.33;;
12059;SDS011;6091;51.432;6.880;2023-04-24T10:15:41;4.18;;;1.20;;
12059;SDS011;6091;51.432;6.880;2023-04-24T10:18:09;3.05;;;1.27;;
12059;SDS011;6091;51.432;6.880;2023-04-24T10:20:40;5.00;;;1.45;;
12059;SDS011;6091;51.432;6.880;2023-04-24T10:23:07;5.15;;;1.30;;
12059;SDS011;6091;51.432;6.880;2023-04-24T10:25:36;4.78;;;1.27;;
12059;SDS011;6091;51.432;6.880;2023-04-24T10:28:04;5.88;;;1.27;;
12059;SDS011;6091;51.432;6.880;2023-04-24T10:30:35;2.80;;;1.10;;
12059;SDS011;6091;51.432;6.880;2023-04-24T10:33:03;1.67;;;0.90;;
12059;SDS011;6091;51.432;6.880;2023-04-24T10:35:36;4.70;;;1.65;;
12059;SDS011;6091;51.432;6.880;2023-04-24T10:38:21;3.58;;;1.13;;
12059;SDS011;6091;51.432;6.880;2023-04-24T10:40:56;2.63;;;0.90;;
12059;SDS011;6091;51.432;6.880;2023-04-24T10:43:42;5.43;;;1.05;;
12059;SDS011;6091;51.432;6.880;2023-04-24T10:46:10;2.15;;;0.90;;
12059;SDS011;6091;51.432;6.880;2023-04-24T10:48:52;3.78;;;1.30;;
12059;SDS011;6091;51.432;6.880;2023-04-24T10:51:24;1.55;;;0.82;;
12059;SDS011;6091;51.432;6.880;2023-04-24T10:54:21;3.80;;;0.90;;
12059;SDS011;6091;51.432;6.880;2023-04-24T10:56:51;3.83;;;1.00;;
12059;SDS011;6091;51.432;6.880;2023-04-24T10:59:29;3.30;;;1.27;;
12059;SDS011;6091;51.432;6.880;2023-04-24T11:02:04;2.25;;;1.13;;
12059;SDS011;6091;51.432;6.880;2023-04-24T11:04:34;2.95;;;1.33;;
12059;SDS011;6091;51.432;6.880;2023-04-24T11:07:02;5.32;;;2.00;;
12059;SDS011;6091;51.432;6.880;2023-04-24T11:09:30;3.35;;;1.73;;
12059;SDS011;6091;51.432;6.880;2023-04-24T11:12:03;6.20;;;2.33;;
12059;SDS011;6091;51.432;6.880;2023-04-24T11:17:30;5.95;;;2.45;;
12059;SDS011;6091;51.432;6.880;2023-04-24T11:20:04;8.10;;;2.95;;
12059;SDS011;6091;51.432;6.880;2023-04-24T11:22:53;5.13;;;2.80;;
12059;SDS011;6091;51.432;6.880;2023-04-24T11:25:23;5.50;;;3.17;;
12059;SDS011;6091;51.432;6.880;2023-04-24T11:28:03;10.43;;;4.70;;
12059;SDS011;6091;51.432;6.880;2023-04-24T11:30:31;8.02;;;3.63;;
12059;SDS011;6091;51.432;6.880;2023-04-24T11:33:03;7.35;;;3.55;;
12059;SDS011;6091;51.432;6.880;2023-04-24T11:35:39;6.95;;;3.60;;
12059;SDS011;6091;51.432;6.880;2023-04-24T11:38:07;8.95;;;3.92;;
12059;SDS011;6091;51.432;6.880;2023-04-24T11:40:39;7.60;;;3.67;;
12059;SDS011;6091;51.432;6.880;2023-04-24T11:43:07;9.50;;;3.28;;
12059;SDS011;6091;51.432;6.880;2023-04-24T11:45:39;6.85;;;3.13;;
12059;SDS011;6091;51.432;6.880;2023-04-24T11:48:19;8.15;;;3.60;;
12059;SDS011;6091;51.432;6.880;2023-04-24T11:50:50;5.82;;;3.10;;
12059;SDS011;6091;51.432;6.880;2023-04-24T11:53:18;8.63;;;3.55;;
12059;SDS011;6091;51.432;6.880;2023-04-24T11:55:49;5.85;;;3.50;;
12059;SDS011;6091;51.432;6.880;2023-04-24T11:58:20;8.68;;;3.25;;
12059;SDS011;6091;51.432;6.880;2023-04-24T12:00:55;6.03;;;3.33;;
12059;SDS011;6091;51.432;6.880;2023-04-24T12:03:27;10.38;;;3.30;;
12059;SDS011;6091;51.432;6.880;2023-04-24T12:06:05;5.65;;;3.03;;
12059;SDS011;6091;51.432;6.880;2023-04-24T12:08:37;7.05;;;3.10;;
12059;SDS011;6091;51.432;6.880;2023-04-24T12:11:05;7.55;;;3.35;;
12059;SDS011;6091;51.432;6.880;2023-04-24T12:13:34;7.20;;;3.10;;
12059;SDS011;6091;51.432;6.880;2023-04-24T12:16:03;11.05;;;3.70;;
12059;SDS011;6091;51.432;6.880;2023-04-24T12:18:35;6.72;;;2.95;;
12059;SDS011;6091;51.432;6.880;2023-04-24T12:21:20;6.95;;;2.83;;
12059;SDS011;6091;51.432;6.880;2023-04-24T12:23:49;4.80;;;3.13;;
12059;SDS011;6091;51.432;6.880;2023-04-24T12:26:17;5.50;;;2.60;;
12059;SDS011;6091;51.432;6.880;2023-04-24T12:28:47;6.93;;;2.83;;
12059;SDS011;6091;51.432;6.880;2023-04-24T12:31:16;7.30;;;2.95;;
12059;SDS011;6091;51.432;6.880;2023-04-24T12:33:44;6.05;;;2.35;;
12059;SDS011;6091;51.432;6.880;2023-04-24T12:36:11;5.32;;;2.38;;
12059;SDS011;6091;51.432;6.880;2023-04-24T12:38:43;5.05;;;2.60;;
12059;SDS011;6091;51.432;6.880;2023-04-24T12:41:19;5.93;;;2.38;;
12059;SDS011;6091;51.432;6.880;2023-04-24T12:43:52;4.28;;;2.60;;
12059;SDS011;6091;51.432;6.880;2023-04-24T12:46:21;5.32;;;2.72;;
12059;SDS011;6091;51.432;6.880;2023-04-24T12:48:48;5.53;;;2.50;;
12059;SDS011;6091;51.432;6.880;2023-04-24T12:51:16;4.32;;;2.42;;
12059;SDS011;6091;51.432;6.880;2023-04-24T12:53:43;5.57;;;2.30;;
12059;SDS011;6091;51.432;6.880;2023-04-24T12:56:13;3.47;;;1.80;;
12059;SDS011;6091;51.432;6.880;2023-04-24T12:58:40;2.70;;;1.80;;
12059;SDS011;6091;51.432;6.880;2023-04-24T13:01:07;3.53;;;1.90;;
12059;SDS011;6091;51.432;6.880;2023-04-24T13:03:35;2.63;;;1.65;;
12059;SDS011;6091;51.432;6.880;2023-04-24T13:06:02;2.75;;;1.70;;
12059;SDS011;6091;51.432;6.880;2023-04-24T13:08:29;2.95;;;1.98;;
12059;SDS011;6091;51.432;6.880;2023-04-24T13:10:56;3.70;;;1.80;;
12059;SDS011;6091;51.432;6.880;2023-04-24T13:13:23;4.53;;;1.95;;
12059;SDS011;6091;51.432;6.880;2023-04-24T13:15:50;2.17;;;1.40;;
12059;SDS011;6091;51.432;6.880;2023-04-24T13:18:18;2.20;;;1.70;;
12059;SDS011;6091;51.432;6.880;2023-04-24T13:20:45;2.40;;;1.40;;
12059;SDS011;6091;51.432;6.880;2023-04-24T13:23:13;3.38;;;1.65;;
12059;SDS011;6091;51.432;6.880;2023-04-24T13:25:41;1.80;;;1.42;;
12059;SDS011;6091;51.432;6.880;2023-04-24T13:28:10;2.50;;;1.58;;
12059;SDS011;6091;51.432;6.880;2023-04-24T13:30:39;2.63;;;1.40;;
12059;SDS011;6091;51.432;6.880;2023-04-24T13:33:09;1.92;;;1.20;;
12059;SDS011;6091;51.432;6.880;2023-04-24T13:35:36;2.72;;;1.55;;
12059;SDS011;6091;51.432;6.880;2023-04-24T13:38:04;1.83;;;1.33;;
12059;SDS011;6091;51.432;6.880;2023-04-24T13:40:32;1.88;;;1.00;;
12059;SDS011;6091;51.432;6.880;2023-04-24T13:43:00;2.38;;;1.42;;
12059;SDS011;6091;51.432;6.880;2023-04-24T13:45:27;2.35;;;1.40;;
12059;SDS011;6091;51.432;6.880;2023-04-24T13:47:56;2.35;;;1.20;;
12059;SDS011;6091;51.432;6.880;2023-04-24T13:50:23;2.70;;;1.10;;
12059;SDS011;6091;51.432;6.880;2023-04-24T13:52:53;1.77;;;1.10;;
12059;SDS011;6091;51.432;6.880;2023-04-24T13:55:20;1.55;;;1.20;;
12059;SDS011;6091;51.432;6.880;2023-04-24T13:57:47;3.85;;;1.10;;
12059;SDS011;6091;51.432;6.880;2023-04-24T14:00:15;1.90;;;1.17;;
12059;SDS011;6091;51.432;6.880;2023-04-24T14:02:47;1.33;;;1.15;;
12059;SDS011;6091;51.432;6.880;2023-04-24T14:05:16;2.75;;;1.50;;
12059;SDS011;6091;51.432;6.880;2023-04-24T14:07:43;2.40;;;1.27;;
12059;SDS011;6091;51.432;6.880;2023-04-24T14:10:11;1.05;;;0.80;;
12059;SDS011;6091;51.432;6.880;2023-04-24T14:12:40;1.15;;;1.00;;
12059;SDS011;6091;51.432;6.880;2023-04-24T14:15:10;2.10;;;1.05;;
12059;SDS011;6091;51.432;6.880;2023-04-24T14:17:39;2.80;;;1.05;;
12059;SDS011;6091;51.432;6.880;2023-04-24T14:20:08;1.33;;;1.20;;
12059;SDS011;6091;51.432;6.880;2023-04-24T14:22:39;1.23;;;0.98;;
12059;SDS011;6091;51.432;6.880;2023-04-24T14:25:07;1.50;;;0.88;;
12059;SDS011;6091;51.432;6.880;2023-04-24T14:27:35;0.98;;;0.80;;
12059;SDS011;6091;51.432;6.880;2023-04-24T14:30:02;1.05;;;0.90;;
12059;SDS011;6091;51.432;6.880;2023-04-24T14:32:30;1.40;;;1.00;;
12059;SDS011;6091;51.432;6.880;2023-04-24T14:34:57;1.13;;;0.70;;
12059;SDS011;6091;51.432;6.880;2023-04-24T14:37:25;1.52;;;0.95;;
12059;SDS011;6091;51.432;6.880;2023-04-24T14:39:52;0.80;;;0.80;;
12059;SDS011;6091;51.432;6.880;2023-04-24T14:42:36;1.30;;;1.00;;
12059;SDS011;6091;51.432;6.880;2023-04-24T14:45:04;1.00;;;0.70;;
12059;SDS011;6091;51.432;6.880;2023-04-24T14:47:34;1.25;;;0.77;;
12059;SDS011;6091;51.432;6.880;2023-04-24T14:50:03;1.23;;;0.80;;
12059;SDS011;6091;51.432;6.880;2023-04-24T14:52:31;1.63;;;0.80;;
12059;SDS011;6091;51.432;6.880;2023-04-24T14:54:58;1.13;;;0.80;;
12059;SDS011;6091;51.432;6.880;2023-04-24T14:57:26;0.73;;;0.73;;
12059;SDS011;6091;51.432;6.880;2023-04-24T14:59:53;0.73;;;0.70;;
12059;SDS011;6091;51.432;6.880;2023-04-24T15:02:20;0.85;;;0.70;;
12059;SDS011;6091;51.432;6.880;2023-04-24T15:04:47;0.88;;;0.60;;
12059;SDS011;6091;51.432;6.880;2023-04-24T15:07:15;0.50;;;0.50;;
12059;SDS011;6091;51.432;6.880;2023-04-24T15:09:42;1.10;;;0.90;;
12059;SDS011;6091;51.432;6.880;2023-04-24T15:12:09;2.38;;;0.90;;
12059;SDS011;6091;51.432;6.880;2023-04-24T15:14:39;0.68;;;0.60;;
12059;SDS011;6091;51.432;6.880;2023-04-24T15:17:06;0.60;;;0.60;;